sensor_id;sensor_type;location;lat;lon;timestamp;P1;durP1;ratioP1;P2;durP2;ratioP2
57846;SDS011;43675;50.030;21.952;2023-10-09T00:01:15;18.40;;;16.80;;
57846;SDS011;43675;50.030;21.952;2023-10-09T00:03:47;18.10;;;16.50;;
57846;SDS011;43675;50.030;21.952;2023-10-09T00:06:14;17.90;;;16.40;;
57846;SDS011;43675;50.030;21.952;2023-10-09T00:08:40;18.40;;;16.70;;
57846;SDS011;43675;50.030;21.952;2023-10-09T00:11:07;18.30;;;16.80;;
57846;SDS011;43675;50.030;21.952;2023-10-09T00:13:34;18.30;;;16.70;;
57846;SDS011;43675;50.030;21.952;2023-10-09T00:16:04;19.00;;;17.40;;
57846;SDS011;43675;50.030;21.952;2023-10-09T00:18:31;18.50;;;16.90;;
57846;SDS011;43675;50.030;21.952;2023-10-09T00:20:58;19.00;;;17.40;;
57846;SDS011;43675;50.030;21.952;2023-10-09T00:23:24;18.80;;;17.10;;
57846;SDS011;43675;50.030;21.952;2023-10-09T00:25:51;18.60;;;17.00;;
57846;SDS011;43675;50.030;21.952;2023-10-09T00:28:18;19.30;;;17.50;;
57846;SDS011;43675;50.030;21.952;2023-10-09T00:30:44;19.00;;;17.40;;
57846;SDS011;43675;50.030;21.952;2023-10-09T00:33:11;18.60;;;17.10;;
57846;SDS011;43675;50.030;21.952;2023-10-09T00:35:38;18.50;;;17.00;;
57846;SDS011;43675;50.030;21.952;2023-10-09T00:38:08;19.00;;;17.20;;
57846;SDS011;43675;50.030;21.952;2023-10-09T00:40:34;19.00;;;17.30;;
57846;SDS011;43675;50.030;21.952;2023-10-09T00:43:01;18.40;;;16.60;;
57846;SDS011;43675;50.030;21.952;2023-10-09T00:45:28;18.30;;;16.70;;
57846;SDS011;43675;50.030;21.952;2023-10-09T00:47:55;18.80;;;17.30;;
57846;SDS011;43675;50.030;21.952;2023-10-09T00:50:22;19.30;;;17.60;;
57846;SDS011;43675;50.030;21.952;2023-10-09T00:52:52;19.30;;;17.40;;
57846;SDS011;43675;50.030;21.952;2023-10-09T00:55:21;18.70;;;17.10;;
57846;SDS011;43675;50.030;21.952;2023-10-09T00:57:50;18.70;;;17.00;;
57846;SDS011;43675;50.030;21.952;2023-10-09T01:00:17;19.00;;;17.30;;
57846;SDS011;43675;50.030;21.952;2023-10-09T01:02:45;18.90;;;17.10;;
57846;SDS011;43675;50.030;21.952;2023-10-09T01:05:11;18.50;;;16.90;;
57846;SDS011;43675;50.030;21.952;2023-10-09T01:07:38;17.60;;;16.20;;
57846;SDS011;43675;50.030;21.952;2023-10-09T01:10:06;17.80;;;16.20;;
57846;SDS011;43675;50.030;21.952;2023-10-09T01:12:33;18.00;;;16.10;;
57846;SDS011;43675;50.030;21.952;2023-10-09T01:14:59;18.00;;;16.30;;
57846;SDS011;43675;50.030;21.952;2023-10-09T01:17:26;17.60;;;16.10;;
57846;SDS011;43675;50.030;21.952;2023-10-09T01:19:53;18.30;;;16.70;;
57846;SDS011;43675;50.030;21.952;2023-10-09T01:22:19;19.40;;;17.50;;
57846;SDS011;43675;50.030;21.952;2023-10-09T01:24:46;19.40;;;17.60;;
57846;SDS011;43675;50.030;21.952;2023-10-09T01:27:12;19.10;;;17.50;;
57846;SDS011;43675;50.030;21.952;2023-10-09T01:29:39;19.30;;;17.60;;
57846;SDS011;43675;50.030;21.952;2023-10-09T01:32:06;19.20;;;17.30;;
57846;SDS011;43675;50.030;21.952;2023-10-09T01:34:33;19.60;;;18.10;;
57846;SDS011;43675;50.030;21.952;2023-10-09T01:37:00;19.00;;;17.30;;
57846;SDS011;43675;50.030;21.952;2023-10-09T01:39:26;18.60;;;17.10;;
57846;SDS011;43675;50.030;21.952;2023-10-09T01:41:53;18.80;;;17.10;;
57846;SDS011;43675;50.030;21.952;2023-10-09T01:44:20;18.90;;;17.40;;
57846;SDS011;43675;50.030;21.952;2023-10-09T01:46:47;19.40;;;17.60;;
57846;SDS011;43675;50.030;21.952;2023-10-09T01:49:14;19.90;;;18.20;;
57846;SDS011;43675;50.030;21.952;2023-10-09T01:51:40;19.10;;;17.50;;
57846;SDS011;43675;50.030;21.952;2023-10-09T01:54:07;18.60;;;17.00;;
57846;SDS011;43675;50.030;21.952;2023-10-09T01:56:33;18.90;;;17.30;;
57846;SDS011;43675;50.030;21.952;2023-10-09T01:59:00;18.50;;;17.00;;
57846;SDS011;43675;50.030;21.952;2023-10-09T02:01:26;19.20;;;17.60;;
57846;SDS011;43675;50.030;21.952;2023-10-09T02:03:53;19.70;;;17.90;;
57846;SDS011;43675;50.030;21.952;2023-10-09T02:06:19;19.80;;;17.90;;
57846;SDS011;43675;50.030;21.952;2023-10-09T02:08:46;19.40;;;17.90;;
57846;SDS011;43675;50.030;21.952;2023-10-09T02:11:12;20.10;;;18.50;;
57846;SDS011;43675;50.030;21.952;2023-10-09T02:13:39;20.30;;;18.80;;
57846;SDS011;43675;50.030;21.952;2023-10-09T02:16:06;20.40;;;18.80;;
57846;SDS011;43675;50.030;21.952;2023-10-09T02:18:32;21.60;;;19.70;;
57846;SDS011;43675;50.030;21.952;2023-10-09T02:23:29;22.50;;;20.70;;
57846;SDS011;43675;50.030;21.952;2023-10-09T02:25:57;22.20;;;20.40;;
57846;SDS011;43675;50.030;21.952;2023-10-09T02:28:24;22.30;;;20.50;;
57846;SDS011;43675;50.030;21.952;2023-10-09T02:30:51;21.80;;;20.00;;
57846;SDS011;43675;50.030;21.952;2023-10-09T02:33:17;22.20;;;20.30;;
57846;SDS011;43675;50.030;21.952;2023-10-09T02:35:44;23.10;;;21.30;;
57846;SDS011;43675;50.030;21.952;2023-10-09T02:38:11;23.50;;;21.60;;
57846;SDS011;43675;50.030;21.952;2023-10-09T02:40:37;23.70;;;21.70;;
57846;SDS011;43675;50.030;21.952;2023-10-09T02:43:04;23.60;;;21.70;;
57846;SDS011;43675;50.030;21.952;2023-10-09T02:45:30;23.80;;;21.90;;
57846;SDS011;43675;50.030;21.952;2023-10-09T02:47:57;23.20;;;21.30;;
57846;SDS011;43675;50.030;21.952;2023-10-09T02:50:23;24.10;;;22.00;;
57846;SDS011;43675;50.030;21.952;2023-10-09T02:52:50;24.50;;;22.40;;
57846;SDS011;43675;50.030;21.952;2023-10-09T02:55:16;24.20;;;22.00;;
57846;SDS011;43675;50.030;21.952;2023-10-09T02:57:43;24.20;;;22.20;;
57846;SDS011;43675;50.030;21.952;2023-10-09T03:00:10;23.60;;;21.60;;
57846;SDS011;43675;50.030;21.952;2023-10-09T03:02:37;22.50;;;20.70;;
57846;SDS011;43675;50.030;21.952;2023-10-09T03:05:03;23.00;;;21.10;;
57846;SDS011;43675;50.030;21.952;2023-10-09T03:07:30;22.90;;;20.90;;
57846;SDS011;43675;50.030;21.952;2023-10-09T03:09:57;23.40;;;21.30;;
57846;SDS011;43675;50.030;21.952;2023-10-09T03:12:23;22.90;;;20.90;;
57846;SDS011;43675;50.030;21.952;2023-10-09T03:14:50;24.20;;;22.10;;
57846;SDS011;43675;50.030;21.952;2023-10-09T03:17:16;24.00;;;21.70;;
57846;SDS011;43675;50.030;21.952;2023-10-09T03:19:43;23.30;;;21.20;;
57846;SDS011;43675;50.030;21.952;2023-10-09T03:22:09;23.00;;;20.50;;
57846;SDS011;43675;50.030;21.952;2023-10-09T03:24:36;22.80;;;20.40;;
57846;SDS011;43675;50.030;21.952;2023-10-09T03:27:04;22.50;;;20.30;;
57846;SDS011;43675;50.030;21.952;2023-10-09T03:29:31;22.00;;;20.10;;
57846;SDS011;43675;50.030;21.952;2023-10-09T03:31:57;22.00;;;20.10;;
57846;SDS011;43675;50.030;21.952;2023-10-09T03:34:24;22.40;;;20.30;;
57846;SDS011;43675;50.030;21.952;2023-10-09T03:36:51;23.40;;;21.40;;
57846;SDS011;43675;50.030;21.952;2023-10-09T03:39:17;23.60;;;21.30;;
57846;SDS011;43675;50.030;21.952;2023-10-09T03:41:44;25.10;;;22.70;;
57846;SDS011;43675;50.030;21.952;2023-10-09T03:44:11;25.70;;;23.40;;
57846;SDS011;43675;50.030;21.952;2023-10-09T03:46:37;26.60;;;24.20;;
57846;SDS011;43675;50.030;21.952;2023-10-09T03:49:04;26.50;;;23.80;;
57846;SDS011;43675;50.030;21.952;2023-10-09T03:51:31;26.70;;;24.30;;
57846;SDS011;43675;50.030;21.952;2023-10-09T03:53:57;27.40;;;24.70;;
57846;SDS011;43675;50.030;21.952;2023-10-09T03:56:24;27.60;;;25.00;;
57846;SDS011;43675;50.030;21.952;2023-10-09T03:58:51;26.90;;;24.30;;
57846;SDS011;43675;50.030;21.952;2023-10-09T04:01:18;26.70;;;24.40;;
57846;SDS011;43675;50.030;21.952;2023-10-09T04:03:46;28.00;;;25.30;;
57846;SDS011;43675;50.030;21.952;2023-10-09T04:06:12;27.80;;;25.20;;
57846;SDS011;43675;50.030;21.952;2023-10-09T04:08:39;29.10;;;26.10;;
57846;SDS011;43675;50.030;21.952;2023-10-09T04:11:06;27.80;;;25.20;;
57846;SDS011;43675;50.030;21.952;2023-10-09T04:13:32;29.10;;;26.30;;
57846;SDS011;43675;50.030;21.952;2023-10-09T04:16:00;27.80;;;25.30;;
57846;SDS011;43675;50.030;21.952;2023-10-09T04:18:27;29.10;;;26.60;;
57846;SDS011;43675;50.030;21.952;2023-10-09T04:20:54;31.40;;;28.30;;
57846;SDS011;43675;50.030;21.952;2023-10-09T04:23:21;30.20;;;27.30;;
57846;SDS011;43675;50.030;21.952;2023-10-09T04:25:47;31.90;;;28.50;;
57846;SDS011;43675;50.030;21.952;2023-10-09T04:28:14;31.00;;;27.80;;
57846;SDS011;43675;50.030;21.952;2023-10-09T04:30:41;32.10;;;29.00;;
57846;SDS011;43675;50.030;21.952;2023-10-09T04:33:11;29.10;;;26.40;;
57846;SDS011;43675;50.030;21.952;2023-10-09T04:35:40;28.50;;;25.60;;
57846;SDS011;43675;50.030;21.952;2023-10-09T04:38:06;28.20;;;25.40;;
57846;SDS011;43675;50.030;21.952;2023-10-09T04:40:33;29.70;;;26.90;;
57846;SDS011;43675;50.030;21.952;2023-10-09T04:43:00;29.20;;;26.50;;
57846;SDS011;43675;50.030;21.952;2023-10-09T04:45:27;29.90;;;26.70;;
57846;SDS011;43675;50.030;21.952;2023-10-09T04:47:53;29.90;;;26.90;;
57846;SDS011;43675;50.030;21.952;2023-10-09T04:50:20;29.20;;;26.40;;
57846;SDS011;43675;50.030;21.952;2023-10-09T04:52:46;28.50;;;25.70;;
57846;SDS011;43675;50.030;21.952;2023-10-09T04:55:13;27.00;;;24.40;;
57846;SDS011;43675;50.030;21.952;2023-10-09T04:57:40;27.40;;;24.90;;
57846;SDS011;43675;50.030;21.952;2023-10-09T05:00:09;27.00;;;24.20;;
57846;SDS011;43675;50.030;21.952;2023-10-09T05:02:36;25.30;;;22.70;;
57846;SDS011;43675;50.030;21.952;2023-10-09T05:05:03;25.60;;;23.10;;
57846;SDS011;43675;50.030;21.952;2023-10-09T05:07:30;24.60;;;22.30;;
57846;SDS011;43675;50.030;21.952;2023-10-09T05:09:57;23.60;;;21.40;;
57846;SDS011;43675;50.030;21.952;2023-10-09T05:12:23;24.70;;;22.30;;
57846;SDS011;43675;50.030;21.952;2023-10-09T05:14:50;23.40;;;21.20;;
57846;SDS011;43675;50.030;21.952;2023-10-09T05:17:17;23.90;;;21.60;;
57846;SDS011;43675;50.030;21.952;2023-10-09T05:19:43;24.40;;;21.30;;
57846;SDS011;43675;50.030;21.952;2023-10-09T05:22:10;22.70;;;20.60;;
57846;SDS011;43675;50.030;21.952;2023-10-09T05:24:37;22.60;;;20.40;;
57846;SDS011;43675;50.030;21.952;2023-10-09T05:27:04;25.80;;;20.80;;
57846;SDS011;43675;50.030;21.952;2023-10-09T05:29:30;22.10;;;20.00;;
57846;SDS011;43675;50.030;21.952;2023-10-09T05:31:57;20.80;;;18.90;;
57846;SDS011;43675;50.030;21.952;2023-10-09T05:34:23;20.50;;;18.70;;
57846;SDS011;43675;50.030;21.952;2023-10-09T05:36:50;21.70;;;19.60;;
57846;SDS011;43675;50.030;21.952;2023-10-09T05:39:17;21.10;;;19.20;;
57846;SDS011;43675;50.030;21.952;2023-10-09T05:41:44;22.50;;;20.30;;
57846;SDS011;43675;50.030;21.952;2023-10-09T05:44:12;21.60;;;19.50;;
57846;SDS011;43675;50.030;21.952;2023-10-09T05:46:38;21.20;;;19.20;;
57846;SDS011;43675;50.030;21.952;2023-10-09T05:49:05;20.50;;;18.70;;
57846;SDS011;43675;50.030;21.952;2023-10-09T05:51:31;20.80;;;18.70;;
57846;SDS011;43675;50.030;21.952;2023-10-09T05:53:58;20.90;;;18.70;;
57846;SDS011;43675;50.030;21.952;2023-10-09T05:56:24;20.10;;;18.20;;
57846;SDS011;43675;50.030;21.952;2023-10-09T05:58:51;20.60;;;18.70;;
57846;SDS011;43675;50.030;21.952;2023-10-09T06:01:17;20.60;;;18.80;;
57846;SDS011;43675;50.030;21.952;2023-10-09T06:03:44;20.40;;;18.20;;
57846;SDS011;43675;50.030;21.952;2023-10-09T06:06:11;21.20;;;19.10;;
57846;SDS011;43675;50.030;21.952;2023-10-09T06:08:37;20.70;;;18.70;;
57846;SDS011;43675;50.030;21.952;2023-10-09T06:11:04;21.20;;;19.30;;
57846;SDS011;43675;50.030;21.952;2023-10-09T06:13:31;21.80;;;19.50;;
57846;SDS011;43675;50.030;21.952;2023-10-09T06:15:58;20.80;;;18.70;;
57846;SDS011;43675;50.030;21.952;2023-10-09T06:18:25;22.00;;;19.90;;
57846;SDS011;43675;50.030;21.952;2023-10-09T06:20:51;22.40;;;20.20;;
57846;SDS011;43675;50.030;21.952;2023-10-09T06:23:18;23.80;;;21.30;;
57846;SDS011;43675;50.030;21.952;2023-10-09T06:25:44;24.60;;;22.20;;
57846;SDS011;43675;50.030;21.952;2023-10-09T06:28:11;26.80;;;23.90;;
57846;SDS011;43675;50.030;21.952;2023-10-09T06:30:38;24.00;;;21.60;;
57846;SDS011;43675;50.030;21.952;2023-10-09T06:33:04;22.80;;;20.50;;
57846;SDS011;43675;50.030;21.952;2023-10-09T06:35:34;21.60;;;19.50;;
57846;SDS011;43675;50.030;21.952;2023-10-09T06:38:01;22.00;;;19.50;;
57846;SDS011;43675;50.030;21.952;2023-10-09T06:42:55;23.90;;;20.80;;
57846;SDS011;43675;50.030;21.952;2023-10-09T06:45:21;25.60;;;21.30;;
57846;SDS011;43675;50.030;21.952;2023-10-09T06:47:48;23.80;;;21.30;;
57846;SDS011;43675;50.030;21.952;2023-10-09T06:50:16;21.90;;;19.70;;
57846;SDS011;43675;50.030;21.952;2023-10-09T06:52:43;22.40;;;20.20;;
57846;SDS011;43675;50.030;21.952;2023-10-09T06:55:09;21.30;;;19.20;;
57846;SDS011;43675;50.030;21.952;2023-10-09T06:57:36;22.40;;;20.10;;
57846;SDS011;43675;50.030;21.952;2023-10-09T07:00:03;22.10;;;19.60;;
57846;SDS011;43675;50.030;21.952;2023-10-09T07:02:30;25.50;;;20.80;;
57846;SDS011;43675;50.030;21.952;2023-10-09T07:04:56;23.90;;;20.10;;
57846;SDS011;43675;50.030;21.952;2023-10-09T07:07:23;21.60;;;19.50;;
57846;SDS011;43675;50.030;21.952;2023-10-09T07:09:49;21.40;;;19.20;;
57846;SDS011;43675;50.030;21.952;2023-10-09T07:12:17;21.60;;;19.50;;
57846;SDS011;43675;50.030;21.952;2023-10-09T07:14:43;21.40;;;19.20;;
57846;SDS011;43675;50.030;21.952;2023-10-09T07:17:10;21.40;;;19.30;;
57846;SDS011;43675;50.030;21.952;2023-10-09T07:19:36;21.30;;;19.10;;
57846;SDS011;43675;50.030;21.952;2023-10-09T07:22:04;22.40;;;20.30;;
57846;SDS011;43675;50.030;21.952;2023-10-09T07:24:31;20.40;;;18.30;;
57846;SDS011;43675;50.030;21.952;2023-10-09T07:26:59;20.90;;;18.70;;
57846;SDS011;43675;50.030;21.952;2023-10-09T07:29:25;25.60;;;19.60;;
57846;SDS011;43675;50.030;21.952;2023-10-09T07:31:52;22.10;;;19.70;;
57846;SDS011;43675;50.030;21.952;2023-10-09T07:34:18;22.90;;;19.50;;
57846;SDS011;43675;50.030;21.952;2023-10-09T07:36:47;21.60;;;19.30;;
57846;SDS011;43675;50.030;21.952;2023-10-09T07:39:14;21.30;;;19.10;;
57846;SDS011;43675;50.030;21.952;2023-10-09T07:41:41;21.20;;;18.90;;
57846;SDS011;43675;50.030;21.952;2023-10-09T07:44:07;21.50;;;19.30;;
57846;SDS011;43675;50.030;21.952;2023-10-09T07:46:34;21.50;;;19.40;;
57846;SDS011;43675;50.030;21.952;2023-10-09T07:49:05;21.50;;;19.30;;
57846;SDS011;43675;50.030;21.952;2023-10-09T07:51:31;21.50;;;19.40;;
57846;SDS011;43675;50.030;21.952;2023-10-09T07:53:59;22.30;;;18.90;;
57846;SDS011;43675;50.030;21.952;2023-10-09T07:56:26;21.30;;;18.90;;
57846;SDS011;43675;50.030;21.952;2023-10-09T07:58:52;21.20;;;19.10;;
57846;SDS011;43675;50.030;21.952;2023-10-09T08:01:19;22.40;;;20.00;;
57846;SDS011;43675;50.030;21.952;2023-10-09T08:03:49;22.90;;;20.00;;
57846;SDS011;43675;50.030;21.952;2023-10-09T08:06:16;22.20;;;19.90;;
57846;SDS011;43675;50.030;21.952;2023-10-09T08:08:42;21.90;;;18.40;;
57846;SDS011;43675;50.030;21.952;2023-10-09T08:11:09;25.30;;;18.30;;
57846;SDS011;43675;50.030;21.952;2023-10-09T08:13:35;21.50;;;18.20;;
57846;SDS011;43675;50.030;21.952;2023-10-09T08:16:02;18.60;;;16.90;;
57846;SDS011;43675;50.030;21.952;2023-10-09T08:18:29;19.20;;;17.20;;
57846;SDS011;43675;50.030;21.952;2023-10-09T08:20:55;20.00;;;18.10;;
57846;SDS011;43675;50.030;21.952;2023-10-09T08:23:22;18.70;;;16.90;;
57846;SDS011;43675;50.030;21.952;2023-10-09T08:25:49;19.10;;;17.20;;
57846;SDS011;43675;50.030;21.952;2023-10-09T08:28:16;19.70;;;17.80;;
57846;SDS011;43675;50.030;21.952;2023-10-09T08:30:42;19.40;;;17.40;;
57846;SDS011;43675;50.030;21.952;2023-10-09T08:33:09;20.60;;;17.00;;
57846;SDS011;43675;50.030;21.952;2023-10-09T08:35:36;18.40;;;16.60;;
57846;SDS011;43675;50.030;21.952;2023-10-09T08:38:03;18.40;;;16.70;;
57846;SDS011;43675;50.030;21.952;2023-10-09T08:40:33;18.70;;;17.00;;
57846;SDS011;43675;50.030;21.952;2023-10-09T08:43:04;18.40;;;16.70;;
57846;SDS011;43675;50.030;21.952;2023-10-09T08:45:37;18.20;;;16.50;;
57846;SDS011;43675;50.030;21.952;2023-10-09T08:48:06;19.10;;;17.20;;
57846;SDS011;43675;50.030;21.952;2023-10-09T08:50:33;18.40;;;16.50;;
57846;SDS011;43675;50.030;21.952;2023-10-09T08:53:02;18.30;;;16.60;;
57846;SDS011;43675;50.030;21.952;2023-10-09T08:55:29;18.00;;;16.30;;
57846;SDS011;43675;50.030;21.952;2023-10-09T08:57:56;18.80;;;17.00;;
57846;SDS011;43675;50.030;21.952;2023-10-09T09:00:23;18.90;;;17.00;;
57846;SDS011;43675;50.030;21.952;2023-10-09T09:02:50;20.50;;;18.30;;
57846;SDS011;43675;50.030;21.952;2023-10-09T09:05:19;18.60;;;17.00;;
57846;SDS011;43675;50.030;21.952;2023-10-09T09:07:46;18.90;;;16.90;;
57846;SDS011;43675;50.030;21.952;2023-10-09T09:10:14;18.60;;;16.90;;
57846;SDS011;43675;50.030;21.952;2023-10-09T09:12:41;19.00;;;17.00;;
57846;SDS011;43675;50.030;21.952;2023-10-09T09:15:13;18.20;;;16.60;;
57846;SDS011;43675;50.030;21.952;2023-10-09T09:17:41;18.20;;;16.60;;
57846;SDS011;43675;50.030;21.952;2023-10-09T09:20:23;18.00;;;16.40;;
57846;SDS011;43675;50.030;21.952;2023-10-09T09:22:54;18.20;;;16.50;;
57846;SDS011;43675;50.030;21.952;2023-10-09T09:25:28;19.00;;;17.20;;
57846;SDS011;43675;50.030;21.952;2023-10-09T09:28:07;18.00;;;16.20;;
57846;SDS011;43675;50.030;21.952;2023-10-09T09:30:33;17.90;;;16.20;;
57846;SDS011;43675;50.030;21.952;2023-10-09T09:33:16;17.30;;;15.70;;
57846;SDS011;43675;50.030;21.952;2023-10-09T09:38:25;18.30;;;16.60;;
57846;SDS011;43675;50.030;21.952;2023-10-09T09:40:54;18.20;;;16.40;;
57846;SDS011;43675;50.030;21.952;2023-10-09T09:43:22;18.00;;;16.30;;
57846;SDS011;43675;50.030;21.952;2023-10-09T09:45:49;18.10;;;16.20;;
57846;SDS011;43675;50.030;21.952;2023-10-09T09:48:16;17.00;;;15.60;;
57846;SDS011;43675;50.030;21.952;2023-10-09T09:50:43;18.60;;;16.00;;
57846;SDS011;43675;50.030;21.952;2023-10-09T09:53:10;17.40;;;15.80;;
57846;SDS011;43675;50.030;21.952;2023-10-09T09:55:42;16.90;;;15.50;;
57846;SDS011;43675;50.030;21.952;2023-10-09T09:58:13;17.30;;;15.70;;
57846;SDS011;43675;50.030;21.952;2023-10-09T10:00:43;16.90;;;15.50;;
57846;SDS011;43675;50.030;21.952;2023-10-09T10:03:13;16.60;;;15.20;;
57846;SDS011;43675;50.030;21.952;2023-10-09T10:05:44;17.50;;;15.70;;
57846;SDS011;43675;50.030;21.952;2023-10-09T10:08:15;17.10;;;15.60;;
57846;SDS011;43675;50.030;21.952;2023-10-09T10:10:43;17.10;;;15.60;;
57846;SDS011;43675;50.030;21.952;2023-10-09T10:13:09;17.10;;;15.70;;
57846;SDS011;43675;50.030;21.952;2023-10-09T10:18:21;17.20;;;15.70;;
57846;SDS011;43675;50.030;21.952;2023-10-09T10:23:33;16.70;;;15.10;;
57846;SDS011;43675;50.030;21.952;2023-10-09T10:32:00;16.40;;;15.00;;
57846;SDS011;43675;50.030;21.952;2023-10-09T10:34:51;16.80;;;15.20;;
57846;SDS011;43675;50.030;21.952;2023-10-09T10:37:20;16.80;;;15.40;;
57846;SDS011;43675;50.030;21.952;2023-10-09T10:39:53;16.80;;;15.30;;
57846;SDS011;43675;50.030;21.952;2023-10-09T10:42:19;16.80;;;15.10;;
57846;SDS011;43675;50.030;21.952;2023-10-09T10:44:46;17.50;;;15.70;;
57846;SDS011;43675;50.030;21.952;2023-10-09T10:47:13;17.10;;;15.70;;
57846;SDS011;43675;50.030;21.952;2023-10-09T10:49:42;16.90;;;15.50;;
57846;SDS011;43675;50.030;21.952;2023-10-09T10:52:19;17.30;;;15.80;;
57846;SDS011;43675;50.030;21.952;2023-10-09T10:54:46;17.50;;;16.00;;
57846;SDS011;43675;50.030;21.952;2023-10-09T10:57:17;16.90;;;15.50;;
57846;SDS011;43675;50.030;21.952;2023-10-09T10:59:45;17.20;;;15.70;;
57846;SDS011;43675;50.030;21.952;2023-10-09T11:02:12;17.60;;;15.90;;
57846;SDS011;43675;50.030;21.952;2023-10-09T11:04:39;17.90;;;16.30;;
57846;SDS011;43675;50.030;21.952;2023-10-09T11:07:06;17.10;;;15.70;;
57846;SDS011;43675;50.030;21.952;2023-10-09T11:09:48;16.90;;;15.40;;
57846;SDS011;43675;50.030;21.952;2023-10-09T11:12:16;17.30;;;15.80;;
57846;SDS011;43675;50.030;21.952;2023-10-09T11:14:46;17.20;;;15.70;;
57846;SDS011;43675;50.030;21.952;2023-10-09T11:17:18;17.00;;;15.40;;
57846;SDS011;43675;50.030;21.952;2023-10-09T11:19:46;16.40;;;15.00;;
57846;SDS011;43675;50.030;21.952;2023-10-09T11:22:13;17.60;;;15.90;;
57846;SDS011;43675;50.030;21.952;2023-10-09T11:24:40;17.30;;;15.60;;
57846;SDS011;43675;50.030;21.952;2023-10-09T11:27:07;17.30;;;15.90;;
57846;SDS011;43675;50.030;21.952;2023-10-09T11:29:36;18.10;;;16.10;;
57846;SDS011;43675;50.030;21.952;2023-10-09T11:34:44;17.20;;;15.60;;
57846;SDS011;43675;50.030;21.952;2023-10-09T11:37:12;17.80;;;16.10;;
57846;SDS011;43675;50.030;21.952;2023-10-09T11:39:40;17.30;;;15.90;;
57846;SDS011;43675;50.030;21.952;2023-10-09T11:42:07;17.60;;;16.00;;
57846;SDS011;43675;50.030;21.952;2023-10-09T11:44:38;17.80;;;16.20;;
57846;SDS011;43675;50.030;21.952;2023-10-09T11:47:07;17.90;;;16.30;;
57846;SDS011;43675;50.030;21.952;2023-10-09T11:49:34;17.10;;;15.60;;
57846;SDS011;43675;50.030;21.952;2023-10-09T11:52:07;17.70;;;16.10;;
57846;SDS011;43675;50.030;21.952;2023-10-09T11:54:34;17.00;;;15.60;;
57846;SDS011;43675;50.030;21.952;2023-10-09T11:57:02;18.70;;;16.80;;
57846;SDS011;43675;50.030;21.952;2023-10-09T11:59:32;18.30;;;16.70;;
57846;SDS011;43675;50.030;21.952;2023-10-09T12:02:00;17.90;;;16.40;;
57846;SDS011;43675;50.030;21.952;2023-10-09T12:04:27;16.50;;;15.20;;
57846;SDS011;43675;50.030;21.952;2023-10-09T12:06:53;16.50;;;15.20;;
57846;SDS011;43675;50.030;21.952;2023-10-09T12:09:20;16.40;;;15.00;;
57846;SDS011;43675;50.030;21.952;2023-10-09T12:11:47;15.70;;;14.40;;
57846;SDS011;43675;50.030;21.952;2023-10-09T12:14:13;15.60;;;14.30;;
57846;SDS011;43675;50.030;21.952;2023-10-09T12:16:40;15.90;;;14.50;;
57846;SDS011;43675;50.030;21.952;2023-10-09T12:19:06;16.40;;;15.00;;
57846;SDS011;43675;50.030;21.952;2023-10-09T12:21:33;15.90;;;14.70;;
57846;SDS011;43675;50.030;21.952;2023-10-09T12:24:00;15.60;;;14.40;;
57846;SDS011;43675;50.030;21.952;2023-10-09T12:26:26;15.10;;;13.90;;
57846;SDS011;43675;50.030;21.952;2023-10-09T12:28:53;15.40;;;14.30;;
57846;SDS011;43675;50.030;21.952;2023-10-09T12:31:20;15.80;;;14.40;;
57846;SDS011;43675;50.030;21.952;2023-10-09T12:33:46;15.10;;;14.00;;
57846;SDS011;43675;50.030;21.952;2023-10-09T12:36:14;16.00;;;14.60;;
57846;SDS011;43675;50.030;21.952;2023-10-09T12:38:41;16.10;;;14.60;;
57846;SDS011;43675;50.030;21.952;2023-10-09T12:41:07;15.90;;;14.60;;
57846;SDS011;43675;50.030;21.952;2023-10-09T12:43:34;17.10;;;15.90;;
57846;SDS011;43675;50.030;21.952;2023-10-09T12:46:04;17.30;;;16.00;;
57846;SDS011;43675;50.030;21.952;2023-10-09T12:48:31;16.70;;;15.40;;
57846;SDS011;43675;50.030;21.952;2023-10-09T12:50:58;17.00;;;15.80;;
57846;SDS011;43675;50.030;21.952;2023-10-09T12:53:24;16.90;;;15.70;;
57846;SDS011;43675;50.030;21.952;2023-10-09T12:55:51;16.90;;;15.50;;
57846;SDS011;43675;50.030;21.952;2023-10-09T12:58:18;15.20;;;14.00;;
57846;SDS011;43675;50.030;21.952;2023-10-09T13:00:44;15.90;;;14.60;;
57846;SDS011;43675;50.030;21.952;2023-10-09T13:03:11;15.70;;;14.50;;
57846;SDS011;43675;50.030;21.952;2023-10-09T13:05:38;15.40;;;14.20;;
57846;SDS011;43675;50.030;21.952;2023-10-09T13:08:04;14.90;;;13.80;;
57846;SDS011;43675;50.030;21.952;2023-10-09T13:10:31;15.50;;;14.30;;
57846;SDS011;43675;50.030;21.952;2023-10-09T13:12:57;15.10;;;14.00;;
57846;SDS011;43675;50.030;21.952;2023-10-09T13:15:24;16.50;;;14.90;;
57846;SDS011;43675;50.030;21.952;2023-10-09T13:17:51;14.30;;;13.20;;
57846;SDS011;43675;50.030;21.952;2023-10-09T13:20:17;14.20;;;13.30;;
57846;SDS011;43675;50.030;21.952;2023-10-09T13:22:44;16.60;;;15.40;;
57846;SDS011;43675;50.030;21.952;2023-10-09T13:25:11;16.70;;;15.50;;
57846;SDS011;43675;50.030;21.952;2023-10-09T13:27:37;16.40;;;15.20;;
57846;SDS011;43675;50.030;21.952;2023-10-09T13:30:04;16.50;;;15.30;;
57846;SDS011;43675;50.030;21.952;2023-10-09T13:32:32;14.70;;;13.60;;
57846;SDS011;43675;50.030;21.952;2023-10-09T13:34:58;16.30;;;14.80;;
57846;SDS011;43675;50.030;21.952;2023-10-09T13:37:25;15.50;;;14.30;;
57846;SDS011;43675;50.030;21.952;2023-10-09T13:39:51;15.60;;;14.40;;
57846;SDS011;43675;50.030;21.952;2023-10-09T13:42:18;18.10;;;15.80;;
57846;SDS011;43675;50.030;21.952;2023-10-09T13:44:44;15.70;;;14.50;;
57846;SDS011;43675;50.030;21.952;2023-10-09T13:47:11;16.00;;;14.80;;
57846;SDS011;43675;50.030;21.952;2023-10-09T13:49:38;16.60;;;15.10;;
57846;SDS011;43675;50.030;21.952;2023-10-09T13:52:04;16.20;;;14.90;;
57846;SDS011;43675;50.030;21.952;2023-10-09T13:54:31;15.50;;;14.30;;
57846;SDS011;43675;50.030;21.952;2023-10-09T13:57:04;16.10;;;14.80;;
57846;SDS011;43675;50.030;21.952;2023-10-09T13:59:35;15.60;;;14.30;;
57846;SDS011;43675;50.030;21.952;2023-10-09T14:02:03;16.30;;;15.00;;
57846;SDS011;43675;50.030;21.952;2023-10-09T14:04:30;17.20;;;15.80;;
57846;SDS011;43675;50.030;21.952;2023-10-09T14:06:56;16.40;;;15.10;;
57846;SDS011;43675;50.030;21.952;2023-10-09T14:09:23;16.10;;;14.80;;
57846;SDS011;43675;50.030;21.952;2023-10-09T14:11:50;16.00;;;14.80;;
57846;SDS011;43675;50.030;21.952;2023-10-09T14:14:17;16.20;;;14.80;;
57846;SDS011;43675;50.030;21.952;2023-10-09T14:16:43;16.80;;;15.40;;
57846;SDS011;43675;50.030;21.952;2023-10-09T14:19:10;17.10;;;15.70;;
57846;SDS011;43675;50.030;21.952;2023-10-09T14:21:37;16.20;;;15.00;;
57846;SDS011;43675;50.030;21.952;2023-10-09T14:24:04;16.70;;;15.30;;
57846;SDS011;43675;50.030;21.952;2023-10-09T14:26:30;16.90;;;15.40;;
57846;SDS011;43675;50.030;21.952;2023-10-09T14:28:57;16.80;;;15.50;;
57846;SDS011;43675;50.030;21.952;2023-10-09T14:31:24;17.70;;;16.30;;